sensor_id;sensor_type;location;lat;lon;timestamp;P1;durP1;ratioP1;P2;durP2;ratioP2
66800;SDS011;53703;50.326;19.122;2023-03-14T00:01:47;6.30;;;2.70;;
66800;SDS011;53703;50.326;19.122;2023-03-14T00:04:41;4.40;;;2.30;;
66800;SDS011;53703;50.326;19.122;2023-03-14T00:07:35;6.90;;;2.60;;
66800;SDS011;53703;50.326;19.122;2023-03-14T00:10:30;3.30;;;2.20;;
66800;SDS011;53703;50.326;19.122;2023-03-14T00:13:24;3.70;;;2.40;;
66800;SDS011;53703;50.326;19.122;2023-03-14T00:16:18;3.70;;;2.20;;
66800;SDS011;53703;50.326;19.122;2023-03-14T00:19:11;3.90;;;2.30;;
66800;SDS011;53703;50.326;19.122;2023-03-14T00:22:05;4.00;;;2.20;;
66800;SDS011;53703;50.326;19.122;2023-03-14T00:24:59;5.30;;;2.20;;
66800;SDS011;53703;50.326;19.122;2023-03-14T00:27:53;5.80;;;2.50;;
66800;SDS011;53703;50.326;19.122;2023-03-14T00:30:47;6.50;;;2.60;;
66800;SDS011;53703;50.326;19.122;2023-03-14T00:33:41;4.60;;;2.40;;
66800;SDS011;53703;50.326;19.122;2023-03-14T00:36:36;3.40;;;2.10;;
66800;SDS011;53703;50.326;19.122;2023-03-14T00:39:30;4.60;;;2.30;;
66800;SDS011;53703;50.326;19.122;2023-03-14T00:42:24;6.40;;;2.30;;
66800;SDS011;53703;50.326;19.122;2023-03-14T00:45:18;3.80;;;2.20;;
66800;SDS011;53703;50.326;19.122;2023-03-14T00:48:12;4.40;;;2.30;;
66800;SDS011;53703;50.326;19.122;2023-03-14T00:51:08;4.70;;;2.30;;
66800;SDS011;53703;50.326;19.122;2023-03-14T00:54:04;7.80;;;2.60;;
66800;SDS011;53703;50.326;19.122;2023-03-14T00:56:58;5.00;;;2.40;;
66800;SDS011;53703;50.326;19.122;2023-03-14T00:59:53;4.40;;;2.50;;
66800;SDS011;53703;50.326;19.122;2023-03-14T01:02:47;3.50;;;2.10;;
66800;SDS011;53703;50.326;19.122;2023-03-14T01:05:41;4.10;;;2.20;;
66800;SDS011;53703;50.326;19.122;2023-03-14T01:08:34;5.80;;;2.60;;
66800;SDS011;53703;50.326;19.122;2023-03-14T01:11:30;5.60;;;2.30;;
66800;SDS011;53703;50.326;19.122;2023-03-14T01:14:26;4.60;;;2.70;;
66800;SDS011;53703;50.326;19.122;2023-03-14T01:17:19;4.90;;;2.40;;
66800;SDS011;53703;50.326;19.122;2023-03-14T01:20:14;4.60;;;2.60;;
66800;SDS011;53703;50.326;19.122;2023-03-14T01:23:08;5.10;;;2.50;;
66800;SDS011;53703;50.326;19.122;2023-03-14T01:26:02;4.70;;;2.10;;
66800;SDS011;53703;50.326;19.122;2023-03-14T01:28:57;4.00;;;2.30;;
66800;SDS011;53703;50.326;19.122;2023-03-14T01:31:50;5.30;;;2.50;;
66800;SDS011;53703;50.326;19.122;2023-03-14T01:34:44;4.80;;;2.70;;
66800;SDS011;53703;50.326;19.122;2023-03-14T01:37:38;4.80;;;2.50;;
66800;SDS011;53703;50.326;19.122;2023-03-14T01:40:33;4.60;;;2.80;;
66800;SDS011;53703;50.326;19.122;2023-03-14T01:43:35;4.90;;;2.60;;
66800;SDS011;53703;50.326;19.122;2023-03-14T01:46:38;6.80;;;2.80;;
66800;SDS011;53703;50.326;19.122;2023-03-14T01:49:33;6.10;;;2.60;;
66800;SDS011;53703;50.326;19.122;2023-03-14T01:52:31;5.90;;;2.70;;
66800;SDS011;53703;50.326;19.122;2023-03-14T01:55:46;5.10;;;2.50;;
66800;SDS011;53703;50.326;19.122;2023-03-14T01:58:40;5.90;;;2.90;;
66800;SDS011;53703;50.326;19.122;2023-03-14T02:01:37;4.90;;;3.00;;
66800;SDS011;53703;50.326;19.122;2023-03-14T02:04:34;5.00;;;2.90;;
66800;SDS011;53703;50.326;19.122;2023-03-14T02:07:30;6.30;;;2.90;;
66800;SDS011;53703;50.326;19.122;2023-03-14T02:10:45;6.70;;;3.60;;
66800;SDS011;53703;50.326;19.122;2023-03-14T02:13:41;6.60;;;3.30;;
66800;SDS011;53703;50.326;19.122;2023-03-14T02:16:35;6.30;;;2.80;;
66800;SDS011;53703;50.326;19.122;2023-03-14T02:19:35;6.60;;;2.90;;
66800;SDS011;53703;50.326;19.122;2023-03-14T02:22:42;8.80;;;2.80;;
66800;SDS011;53703;50.326;19.122;2023-03-14T02:25:42;5.90;;;3.00;;
66800;SDS011;53703;50.326;19.122;2023-03-14T02:28:43;5.90;;;3.10;;
66800;SDS011;53703;50.326;19.122;2023-03-14T02:31:39;6.40;;;3.30;;
66800;SDS011;53703;50.326;19.122;2023-03-14T02:34:32;6.40;;;3.20;;
66800;SDS011;53703;50.326;19.122;2023-03-14T02:37:30;5.60;;;3.10;;
66800;SDS011;53703;50.326;19.122;2023-03-14T02:40:30;6.20;;;3.50;;
66800;SDS011;53703;50.326;19.122;2023-03-14T02:43:23;7.40;;;3.30;;
66800;SDS011;53703;50.326;19.122;2023-03-14T02:46:17;8.90;;;3.60;;
66800;SDS011;53703;50.326;19.122;2023-03-14T02:49:13;7.90;;;3.70;;
66800;SDS011;53703;50.326;19.122;2023-03-14T02:52:08;8.10;;;3.90;;
66800;SDS011;53703;50.326;19.122;2023-03-14T02:55:02;7.50;;;3.80;;
66800;SDS011;53703;50.326;19.122;2023-03-14T02:57:56;8.50;;;3.90;;
66800;SDS011;53703;50.326;19.122;2023-03-14T03:00:50;7.60;;;3.90;;
66800;SDS011;53703;50.326;19.122;2023-03-14T03:03:44;8.80;;;4.30;;
66800;SDS011;53703;50.326;19.122;2023-03-14T03:06:38;8.10;;;4.20;;
66800;SDS011;53703;50.326;19.122;2023-03-14T03:09:33;8.20;;;4.00;;
66800;SDS011;53703;50.326;19.122;2023-03-14T03:12:26;8.10;;;3.80;;
66800;SDS011;53703;50.326;19.122;2023-03-14T03:15:20;8.90;;;4.10;;
66800;SDS011;53703;50.326;19.122;2023-03-14T03:18:14;8.60;;;4.10;;
66800;SDS011;53703;50.326;19.122;2023-03-14T03:21:08;8.10;;;4.10;;
66800;SDS011;53703;50.326;19.122;2023-03-14T03:24:02;8.80;;;4.20;;
66800;SDS011;53703;50.326;19.122;2023-03-14T03:26:57;9.10;;;4.50;;
66800;SDS011;53703;50.326;19.122;2023-03-14T03:29:51;9.20;;;4.60;;
66800;SDS011;53703;50.326;19.122;2023-03-14T03:32:44;9.80;;;4.50;;
66800;SDS011;53703;50.326;19.122;2023-03-14T03:35:45;8.60;;;4.70;;
66800;SDS011;53703;50.326;19.122;2023-03-14T03:38:40;9.90;;;4.80;;
66800;SDS011;53703;50.326;19.122;2023-03-14T03:41:34;9.50;;;5.10;;
66800;SDS011;53703;50.326;19.122;2023-03-14T03:44:27;10.00;;;5.10;;
66800;SDS011;53703;50.326;19.122;2023-03-14T03:47:21;12.80;;;5.30;;
66800;SDS011;53703;50.326;19.122;2023-03-14T03:50:15;9.10;;;5.10;;
66800;SDS011;53703;50.326;19.122;2023-03-14T03:53:09;9.30;;;4.90;;
66800;SDS011;53703;50.326;19.122;2023-03-14T03:56:06;11.10;;;5.90;;
66800;SDS011;53703;50.326;19.122;2023-03-14T03:59:00;12.10;;;5.80;;
66800;SDS011;53703;50.326;19.122;2023-03-14T04:01:54;9.90;;;5.50;;
66800;SDS011;53703;50.326;19.122;2023-03-14T04:04:48;11.50;;;5.60;;
66800;SDS011;53703;50.326;19.122;2023-03-14T04:07:42;10.30;;;5.20;;
66800;SDS011;53703;50.326;19.122;2023-03-14T04:10:36;11.10;;;5.30;;
66800;SDS011;53703;50.326;19.122;2023-03-14T04:13:30;10.80;;;5.60;;
66800;SDS011;53703;50.326;19.122;2023-03-14T04:16:26;11.80;;;5.70;;
66800;SDS011;53703;50.326;19.122;2023-03-14T04:19:22;12.30;;;5.90;;
66800;SDS011;53703;50.326;19.122;2023-03-14T04:22:15;12.60;;;5.80;;
66800;SDS011;53703;50.326;19.122;2023-03-14T04:25:10;11.60;;;5.50;;
66800;SDS011;53703;50.326;19.122;2023-03-14T04:28:04;13.30;;;6.00;;
66800;SDS011;53703;50.326;19.122;2023-03-14T04:30:58;13.00;;;5.70;;
66800;SDS011;53703;50.326;19.122;2023-03-14T04:33:58;11.40;;;5.60;;
66800;SDS011;53703;50.326;19.122;2023-03-14T04:36:51;11.10;;;5.80;;
66800;SDS011;53703;50.326;19.122;2023-03-14T04:39:45;12.10;;;5.80;;
66800;SDS011;53703;50.326;19.122;2023-03-14T04:42:39;11.40;;;5.90;;
66800;SDS011;53703;50.326;19.122;2023-03-14T04:45:32;13.50;;;6.10;;
66800;SDS011;53703;50.326;19.122;2023-03-14T04:48:26;12.70;;;6.00;;
66800;SDS011;53703;50.326;19.122;2023-03-14T04:51:20;11.50;;;5.40;;
66800;SDS011;53703;50.326;19.122;2023-03-14T04:54:18;11.10;;;5.90;;
66800;SDS011;53703;50.326;19.122;2023-03-14T04:57:11;11.50;;;5.50;;
66800;SDS011;53703;50.326;19.122;2023-03-14T05:00:07;12.10;;;6.30;;
66800;SDS011;53703;50.326;19.122;2023-03-14T05:03:02;11.20;;;5.40;;
66800;SDS011;53703;50.326;19.122;2023-03-14T05:05:55;10.90;;;6.00;;
66800;SDS011;53703;50.326;19.122;2023-03-14T05:08:49;11.90;;;5.60;;
66800;SDS011;53703;50.326;19.122;2023-03-14T05:11:43;14.10;;;5.90;;
66800;SDS011;53703;50.326;19.122;2023-03-14T05:14:37;11.40;;;5.30;;
66800;SDS011;53703;50.326;19.122;2023-03-14T05:17:30;11.70;;;5.60;;
66800;SDS011;53703;50.326;19.122;2023-03-14T05:20:25;13.70;;;6.20;;
66800;SDS011;53703;50.326;19.122;2023-03-14T05:23:19;11.20;;;6.30;;
66800;SDS011;53703;50.326;19.122;2023-03-14T05:26:12;11.90;;;5.80;;
66800;SDS011;53703;50.326;19.122;2023-03-14T05:29:07;14.50;;;6.50;;
66800;SDS011;53703;50.326;19.122;2023-03-14T05:32:01;18.40;;;6.10;;
66800;SDS011;53703;50.326;19.122;2023-03-14T05:34:54;13.80;;;6.70;;
66800;SDS011;53703;50.326;19.122;2023-03-14T05:37:51;65.30;;;28.50;;
66800;SDS011;53703;50.326;19.122;2023-03-14T05:40:45;83.90;;;37.50;;
66800;SDS011;53703;50.326;19.122;2023-03-14T05:43:39;82.30;;;37.10;;
66800;SDS011;53703;50.326;19.122;2023-03-14T05:46:33;84.70;;;37.70;;
66800;SDS011;53703;50.326;19.122;2023-03-14T05:49:27;77.10;;;32.10;;
66800;SDS011;53703;50.326;19.122;2023-03-14T05:52:21;72.20;;;30.40;;
66800;SDS011;53703;50.326;19.122;2023-03-14T05:55:14;43.20;;;19.70;;
66800;SDS011;53703;50.326;19.122;2023-03-14T05:58:08;44.10;;;19.70;;
66800;SDS011;53703;50.326;19.122;2023-03-14T06:01:05;37.90;;;16.90;;
66800;SDS011;53703;50.326;19.122;2023-03-14T06:06:51;28.80;;;13.40;;
66800;SDS011;53703;50.326;19.122;2023-03-14T06:09:45;27.10;;;12.30;;
66800;SDS011;53703;50.326;19.122;2023-03-14T06:12:39;24.20;;;11.40;;
66800;SDS011;53703;50.326;19.122;2023-03-14T06:15:32;23.60;;;10.50;;
66800;SDS011;53703;50.326;19.122;2023-03-14T06:18:27;21.40;;;9.90;;
66800;SDS011;53703;50.326;19.122;2023-03-14T06:21:21;18.70;;;8.70;;
66800;SDS011;53703;50.326;19.122;2023-03-14T06:24:14;18.10;;;9.30;;
66800;SDS011;53703;50.326;19.122;2023-03-14T06:27:08;19.30;;;8.20;;
66800;SDS011;53703;50.326;19.122;2023-03-14T06:30:03;18.20;;;8.30;;
66800;SDS011;53703;50.326;19.122;2023-03-14T06:32:58;15.70;;;8.10;;
66800;SDS011;53703;50.326;19.122;2023-03-14T06:35:51;18.00;;;8.70;;
66800;SDS011;53703;50.326;19.122;2023-03-14T06:38:45;21.70;;;8.70;;
66800;SDS011;53703;50.326;19.122;2023-03-14T06:41:39;15.10;;;7.40;;
66800;SDS011;53703;50.326;19.122;2023-03-14T06:44:33;14.50;;;7.90;;
66800;SDS011;53703;50.326;19.122;2023-03-14T06:47:29;14.00;;;7.20;;
66800;SDS011;53703;50.326;19.122;2023-03-14T06:50:22;12.80;;;6.90;;
66800;SDS011;53703;50.326;19.122;2023-03-14T06:53:16;12.70;;;6.30;;
66800;SDS011;53703;50.326;19.122;2023-03-14T06:56:10;15.00;;;7.80;;
66800;SDS011;53703;50.326;19.122;2023-03-14T06:59:04;15.20;;;7.10;;
66800;SDS011;53703;50.326;19.122;2023-03-14T07:01:58;12.60;;;6.40;;
66800;SDS011;53703;50.326;19.122;2023-03-14T07:04:51;17.60;;;7.00;;
66800;SDS011;53703;50.326;19.122;2023-03-14T07:07:45;14.00;;;6.60;;
66800;SDS011;53703;50.326;19.122;2023-03-14T07:10:39;14.00;;;6.50;;
66800;SDS011;53703;50.326;19.122;2023-03-14T07:13:32;14.80;;;6.60;;
66800;SDS011;53703;50.326;19.122;2023-03-14T07:16:26;12.30;;;6.10;;
66800;SDS011;53703;50.326;19.122;2023-03-14T07:19:24;14.10;;;6.80;;
66800;SDS011;53703;50.326;19.122;2023-03-14T07:22:17;11.70;;;5.90;;
66800;SDS011;53703;50.326;19.122;2023-03-14T07:25:11;13.10;;;6.00;;
66800;SDS011;53703;50.326;19.122;2023-03-14T07:28:05;13.90;;;5.70;;
66800;SDS011;53703;50.326;19.122;2023-03-14T07:30:59;13.30;;;6.40;;
66800;SDS011;53703;50.326;19.122;2023-03-14T07:33:52;10.70;;;5.80;;
66800;SDS011;53703;50.326;19.122;2023-03-14T07:36:46;13.30;;;6.10;;
66800;SDS011;53703;50.326;19.122;2023-03-14T07:39:40;11.00;;;5.50;;
66800;SDS011;53703;50.326;19.122;2023-03-14T07:42:33;10.10;;;5.00;;
66800;SDS011;53703;50.326;19.122;2023-03-14T07:45:27;11.50;;;5.80;;
66800;SDS011;53703;50.326;19.122;2023-03-14T07:48:21;10.90;;;5.60;;
66800;SDS011;53703;50.326;19.122;2023-03-14T07:51:17;12.40;;;5.10;;
66800;SDS011;53703;50.326;19.122;2023-03-14T07:54:11;12.10;;;5.60;;
66800;SDS011;53703;50.326;19.122;2023-03-14T07:57:04;10.60;;;5.60;;
66800;SDS011;53703;50.326;19.122;2023-03-14T07:59:58;9.20;;;4.40;;
66800;SDS011;53703;50.326;19.122;2023-03-14T08:02:52;9.30;;;4.50;;
66800;SDS011;53703;50.326;19.122;2023-03-14T08:05:48;12.30;;;3.80;;
66800;SDS011;53703;50.326;19.122;2023-03-14T08:08:42;9.20;;;3.10;;
66800;SDS011;53703;50.326;19.122;2023-03-14T08:11:36;7.00;;;3.00;;
66800;SDS011;53703;50.326;19.122;2023-03-14T08:14:30;6.70;;;3.10;;
66800;SDS011;53703;50.326;19.122;2023-03-14T08:17:24;7.20;;;3.70;;
66800;SDS011;53703;50.326;19.122;2023-03-14T08:20:19;10.10;;;4.10;;
66800;SDS011;53703;50.326;19.122;2023-03-14T08:23:14;10.20;;;4.30;;
66800;SDS011;53703;50.326;19.122;2023-03-14T08:26:09;8.00;;;4.30;;
66800;SDS011;53703;50.326;19.122;2023-03-14T08:29:03;7.30;;;3.90;;
66800;SDS011;53703;50.326;19.122;2023-03-14T08:31:58;8.30;;;4.20;;
66800;SDS011;53703;50.326;19.122;2023-03-14T08:34:52;9.90;;;4.30;;
66800;SDS011;53703;50.326;19.122;2023-03-14T08:37:46;11.00;;;4.50;;
66800;SDS011;53703;50.326;19.122;2023-03-14T08:40:40;8.90;;;4.40;;
66800;SDS011;53703;50.326;19.122;2023-03-14T08:43:34;12.00;;;5.20;;
66800;SDS011;53703;50.326;19.122;2023-03-14T08:46:50;14.60;;;6.10;;
66800;SDS011;53703;50.326;19.122;2023-03-14T08:49:45;16.00;;;6.60;;
66800;SDS011;53703;50.326;19.122;2023-03-14T08:52:39;15.60;;;6.40;;
66800;SDS011;53703;50.326;19.122;2023-03-14T08:55:33;18.50;;;7.40;;
66800;SDS011;53703;50.326;19.122;2023-03-14T08:58:29;15.60;;;6.60;;
66800;SDS011;53703;50.326;19.122;2023-03-14T09:01:23;17.70;;;6.90;;
66800;SDS011;53703;50.326;19.122;2023-03-14T09:04:17;17.30;;;6.10;;
66800;SDS011;53703;50.326;19.122;2023-03-14T09:07:13;19.30;;;7.10;;
66800;SDS011;53703;50.326;19.122;2023-03-14T09:10:09;19.20;;;7.10;;
66800;SDS011;53703;50.326;19.122;2023-03-14T09:13:04;18.30;;;7.30;;
66800;SDS011;53703;50.326;19.122;2023-03-14T09:15:58;23.70;;;9.00;;
66800;SDS011;53703;50.326;19.122;2023-03-14T09:18:51;22.60;;;8.00;;
66800;SDS011;53703;50.326;19.122;2023-03-14T09:21:48;22.50;;;8.80;;
66800;SDS011;53703;50.326;19.122;2023-03-14T09:24:42;27.70;;;9.80;;
66800;SDS011;53703;50.326;19.122;2023-03-14T09:27:36;24.80;;;9.30;;
66800;SDS011;53703;50.326;19.122;2023-03-14T09:30:30;25.90;;;9.70;;
66800;SDS011;53703;50.326;19.122;2023-03-14T09:33:24;30.90;;;10.90;;
66800;SDS011;53703;50.326;19.122;2023-03-14T09:36:18;26.60;;;10.40;;
66800;SDS011;53703;50.326;19.122;2023-03-14T09:39:11;31.00;;;11.10;;
66800;SDS011;53703;50.326;19.122;2023-03-14T09:42:08;29.90;;;11.00;;
66800;SDS011;53703;50.326;19.122;2023-03-14T09:45:10;32.60;;;11.40;;
66800;SDS011;53703;50.326;19.122;2023-03-14T09:48:08;33.20;;;11.70;;
66800;SDS011;53703;50.326;19.122;2023-03-14T09:51:13;29.00;;;11.00;;
66800;SDS011;53703;50.326;19.122;2023-03-14T09:54:14;31.50;;;12.00;;
66800;SDS011;53703;50.326;19.122;2023-03-14T09:57:20;35.50;;;12.20;;
66800;SDS011;53703;50.326;19.122;2023-03-14T10:00:18;33.20;;;11.50;;
66800;SDS011;53703;50.326;19.122;2023-03-14T10:03:22;30.80;;;11.80;;
66800;SDS011;53703;50.326;19.122;2023-03-14T10:06:20;33.70;;;11.30;;
66800;SDS011;53703;50.326;19.122;2023-03-14T10:09:20;31.10;;;11.20;;
66800;SDS011;53703;50.326;19.122;2023-03-14T10:12:17;31.70;;;11.80;;
66800;SDS011;53703;50.326;19.122;2023-03-14T10:15:13;35.10;;;11.30;;
66800;SDS011;53703;50.326;19.122;2023-03-14T10:18:14;29.50;;;10.30;;
66800;SDS011;53703;50.326;19.122;2023-03-14T10:21:16;32.60;;;11.80;;
66800;SDS011;53703;50.326;19.122;2023-03-14T10:24:22;30.60;;;10.90;;
66800;SDS011;53703;50.326;19.122;2023-03-14T10:27:22;28.00;;;10.90;;
66800;SDS011;53703;50.326;19.122;2023-03-14T10:30:38;29.90;;;11.20;;
66800;SDS011;53703;50.326;19.122;2023-03-14T10:33:37;33.70;;;11.40;;
66800;SDS011;53703;50.326;19.122;2023-03-14T10:36:32;29.00;;;10.60;;
66800;SDS011;53703;50.326;19.122;2023-03-14T10:39:35;30.30;;;10.80;;
66800;SDS011;53703;50.326;19.122;2023-03-14T10:42:38;33.10;;;10.60;;
66800;SDS011;53703;50.326;19.122;2023-03-14T10:45:37;30.60;;;11.30;;
66800;SDS011;53703;50.326;19.122;2023-03-14T10:48:34;28.20;;;10.50;;
66800;SDS011;53703;50.326;19.122;2023-03-14T10:51:31;32.30;;;10.40;;
66800;SDS011;53703;50.326;19.122;2023-03-14T10:54:25;27.50;;;11.00;;
66800;SDS011;53703;50.326;19.122;2023-03-14T10:57:23;28.80;;;10.10;;
66800;SDS011;53703;50.326;19.122;2023-03-14T11:00:19;29.80;;;10.30;;
66800;SDS011;53703;50.326;19.122;2023-03-14T11:03:14;28.20;;;10.10;;
66800;SDS011;53703;50.326;19.122;2023-03-14T11:06:13;28.10;;;10.00;;
66800;SDS011;53703;50.326;19.122;2023-03-14T11:09:18;27.40;;;9.70;;
66800;SDS011;53703;50.326;19.122;2023-03-14T11:12:28;26.40;;;9.80;;
66800;SDS011;53703;50.326;19.122;2023-03-14T11:15:30;27.80;;;9.90;;
66800;SDS011;53703;50.326;19.122;2023-03-14T11:18:45;25.40;;;9.90;;
66800;SDS011;53703;50.326;19.122;2023-03-14T11:21:54;24.80;;;9.60;;
66800;SDS011;53703;50.326;19.122;2023-03-14T11:24:58;27.30;;;9.30;;
66800;SDS011;53703;50.326;19.122;2023-03-14T11:28:08;25.50;;;9.20;;
66800;SDS011;53703;50.326;19.122;2023-03-14T11:31:13;24.50;;;8.80;;
66800;SDS011;53703;50.326;19.122;2023-03-14T11:34:16;24.20;;;9.60;;
66800;SDS011;53703;50.326;19.122;2023-03-14T11:37:20;24.70;;;8.80;;
66800;SDS011;53703;50.326;19.122;2023-03-14T11:40:20;25.70;;;8.30;;
66800;SDS011;53703;50.326;19.122;2023-03-14T11:43:17;22.80;;;8.70;;
66800;SDS011;53703;50.326;19.122;2023-03-14T11:46:14;22.20;;;8.50;;
66800;SDS011;53703;50.326;19.122;2023-03-14T11:49:17;23.00;;;8.60;;
66800;SDS011;53703;50.326;19.122;2023-03-14T11:52:25;24.20;;;8.10;;
66800;SDS011;53703;50.326;19.122;2023-03-14T11:55:25;20.80;;;8.10;;
66800;SDS011;53703;50.326;19.122;2023-03-14T11:58:25;22.40;;;8.50;;
66800;SDS011;53703;50.326;19.122;2023-03-14T12:01:23;21.60;;;8.50;;
66800;SDS011;53703;50.326;19.122;2023-03-14T12:04:40;20.80;;;7.80;;
66800;SDS011;53703;50.326;19.122;2023-03-14T12:07:54;20.20;;;7.50;;
66800;SDS011;53703;50.326;19.122;2023-03-14T12:11:11;20.60;;;8.10;;
66800;SDS011;53703;50.326;19.122;2023-03-14T12:14:21;22.30;;;7.90;;
66800;SDS011;53703;50.326;19.122;2023-03-14T12:17:24;21.40;;;8.00;;
66800;SDS011;53703;50.326;19.122;2023-03-14T12:20:25;21.20;;;7.50;;
66800;SDS011;53703;50.326;19.122;2023-03-14T12:23:19;20.80;;;7.50;;
66800;SDS011;53703;50.326;19.122;2023-03-14T12:26:19;17.60;;;7.00;;
66800;SDS011;53703;50.326;19.122;2023-03-14T12:29:16;17.60;;;7.40;;
66800;SDS011;53703;50.326;19.122;2023-03-14T12:32:23;18.80;;;7.40;;
66800;SDS011;53703;50.326;19.122;2023-03-14T12:35:36;22.10;;;7.50;;
66800;SDS011;53703;50.326;19.122;2023-03-14T12:38:18;16.60;;;6.40;;
66800;SDS011;53703;50.326;19.122;2023-03-14T12:41:36;17.10;;;6.80;;
66800;SDS011;53703;50.326;19.122;2023-03-14T12:44:46;16.40;;;6.80;;
66800;SDS011;53703;50.326;19.122;2023-03-14T12:48:03;18.60;;;6.50;;
66800;SDS011;53703;50.326;19.122;2023-03-14T12:50:53;17.30;;;6.20;;
66800;SDS011;53703;50.326;19.122;2023-03-14T12:54:04;16.60;;;6.40;;
66800;SDS011;53703;50.326;19.122;2023-03-14T12:57:26;19.30;;;6.40;;
66800;SDS011;53703;50.326;19.122;2023-03-14T13:00:29;17.70;;;6.40;;
66800;SDS011;53703;50.326;19.122;2023-03-14T13:03:42;15.60;;;6.20;;
66800;SDS011;53703;50.326;19.122;2023-03-14T13:06:50;16.20;;;6.00;;
66800;SDS011;53703;50.326;19.122;2023-03-14T13:09:54;14.70;;;5.60;;
66800;SDS011;53703;50.326;19.122;2023-03-14T13:12:54;16.40;;;6.00;;
66800;SDS011;53703;50.326;19.122;2023-03-14T13:15:57;14.60;;;5.90;;
66800;SDS011;53703;50.326;19.122;2023-03-14T13:19:02;15.30;;;5.60;;
66800;SDS011;53703;50.326;19.122;2023-03-14T13:22:05;14.80;;;5.20;;
66800;SDS011;53703;50.326;19.122;2023-03-14T13:25:09;13.40;;;5.00;;
66800;SDS011;53703;50.326;19.122;2023-03-14T13:28:03;19.10;;;6.00;;
66800;SDS011;53703;50.326;19.122;2023-03-14T13:31:00;17.30;;;6.10;;
66800;SDS011;53703;50.326;19.122;2023-03-14T13:34:14;12.40;;;5.60;;
66800;SDS011;53703;50.326;19.122;2023-03-14T13:37:17;13.70;;;6.00;;
66800;SDS011;53703;50.326;19.122;2023-03-14T13:40:24;16.70;;;5.60;;
66800;SDS011;53703;50.326;19.122;2023-03-14T13:43:27;18.50;;;5.40;;
66800;SDS011;53703;50.326;19.122;2023-03-14T13:46:23;12.30;;;4.90;;
66800;SDS011;53703;50.326;19.122;2023-03-14T13:49:21;12.50;;;5.20;;
66800;SDS011;53703;50.326;19.122;2023-03-14T13:52:27;13.90;;;5.10;;
66800;SDS011;53703;50.326;19.122;2023-03-14T13:55:22;13.80;;;5.40;;
66800;SDS011;53703;50.326;19.122;2023-03-14T13:58:22;11.80;;;5.20;;
66800;SDS011;53703;50.326;19.122;2023-03-14T14:01:18;13.30;;;5.20;;
66800;SDS011;53703;50.326;19.122;2023-03-14T14:04:17;11.80;;;5.10;;
66800;SDS011;53703;50.326;19.122;2023-03-14T14:07:16;11.60;;;4.90;;
66800;SDS011;53703;50.326;19.122;2023-03-14T14:10:12;13.00;;;5.20;;
66800;SDS011;53703;50.326;19.122;2023-03-14T14:13:08;12.00;;;4.80;;
66800;SDS011;53703;50.326;19.122;2023-03-14T14:16:09;12.50;;;5.10;;
66800;SDS011;53703;50.326;19.122;2023-03-14T14:19:03;11.90;;;4.90;;
66800;SDS011;53703;50.326;19.122;2023-03-14T14:21:58;13.50;;;4.80;;
66800;SDS011;53703;50.326;19.122;2023-03-14T14:27:51;11.90;;;5.20;;
66800;SDS011;53703;50.326;19.122;2023-03-14T14:30:45;19.70;;;4.80;;
66800;SDS011;53703;50.326;19.122;2023-03-14T14:33:43;9.20;;;4.40;;
66800;SDS011;53703;50.326;19.122;2023-03-14T14:36:39;11.90;;;5.10;;
66800;SDS011;53703;50.326;19.122;2023-03-14T14:39:40;13.10;;;4.30;;
66800;SDS011;53703;50.326;19.122;2023-03-14T14:42:35;12.40;;;4.80;;
66800;SDS011;53703;50.326;19.122;2023-03-14T14:45:34;14.80;;;4.60;;
66800;SDS011;53703;50.326;19.122;2023-03-14T14:48:29;10.20;;;4.90;;
66800;SDS011;53703;50.326;19.122;2023-03-14T14:51:47;11.70;;;4.70;;
66800;SDS011;53703;50.326;19.122;2023-03-14T14:54:46;8.90;;;4.30;;
66800;SDS011;53703;50.326;19.122;2023-03-14T14:57:51;10.70;;;4.80;;
66800;SDS011;53703;50.326;19.122;2023-03-14T15:00:52;13.10;;;4.50;;
66800;SDS011;53703;50.326;19.122;2023-03-14T15:03:49;12.70;;;4.30;;
66800;SDS011;53703;50.326;19.122;2023-03-14T15:06:46;9.90;;;4.30;;
66800;SDS011;53703;50.326;19.122;2023-03-14T15:09:44;13.20;;;4.20;;
66800;SDS011;53703;50.326;19.122;2023-03-14T15:12:38;9.10;;;4.00;;
66800;SDS011;53703;50.326;19.122;2023-03-14T15:15:32;9.70;;;4.10;;
66800;SDS011;53703;50.326;19.122;2023-03-14T15:18:27;9.70;;;4.00;;
66800;SDS011;53703;50.326;19.122;2023-03-14T15:21:22;9.70;;;4.30;;
66800;SDS011;53703;50.326;19.122;2023-03-14T15:24:16;9.80;;;4.60;;
66800;SDS011;53703;50.326;19.122;2023-03-14T15:27:13;11.60;;;5.40;;
66800;SDS011;53703;50.326;19.122;2023-03-14T15:30:14;15.70;;;7.60;;
66800;SDS011;53703;50.326;19.122;2023-03-14T15:33:09;20.20;;;8.00;;
66800;SDS011;53703;50.326;19.122;2023-03-14T15:36:03;13.10;;;6.40;;
66800;SDS011;53703;50.326;19.122;2023-03-14T15:39:06;17.70;;;6.70;;
66800;SDS011;53703;50.326;19.122;2023-03-14T15:42:01;12.10;;;6.00;;
66800;SDS011;53703;50.326;19.122;2023-03-14T15:44:55;13.50;;;6.00;;
66800;SDS011;53703;50.326;19.122;2023-03-14T15:47:50;14.80;;;6.20;;
66800;SDS011;53703;50.326;19.122;2023-03-14T15:50:44;14.10;;;6.20;;
66800;SDS011;53703;50.326;19.122;2023-03-14T15:53:38;13.30;;;6.30;;
66800;SDS011;53703;50.326;19.122;2023-03-14T15:56:33;15.10;;;6.70;;
66800;SDS011;53703;50.326;19.122;2023-03-14T15:59:30;14.00;;;6.50;;
66800;SDS011;53703;50.326;19.122;2023-03-14T16:02:24;16.20;;;6.50;;
66800;SDS011;53703;50.326;19.122;2023-03-14T16:05:19;14.50;;;6.20;;
66800;SDS011;53703;50.326;19.122;2023-03-14T16:08:13;15.70;;;6.70;;
66800;SDS011;53703;50.326;19.122;2023-03-14T16:11:08;17.70;;;7.70;;
66800;SDS011;53703;50.326;19.122;2023-03-14T16:14:03;20.10;;;8.00;;
66800;SDS011;53703;50.326;19.122;2023-03-14T16:16:57;19.90;;;7.90;;
66800;SDS011;53703;50.326;19.122;2023-03-14T16:19:51;19.90;;;8.10;;
66800;SDS011;53703;50.326;19.122;2023-03-14T16:22:45;17.20;;;7.30;;
66800;SDS011;53703;50.326;19.122;2023-03-14T16:25:39;17.80;;;7.80;;
66800;SDS011;53703;50.326;19.122;2023-03-14T16:28:35;18.30;;;7.80;;
66800;SDS011;53703;50.326;19.122;2023-03-14T16:31:30;17.20;;;7.90;;
66800;SDS011;53703;50.326;19.122;2023-03-14T16:34:24;16.50;;;7.00;;
66800;SDS011;53703;50.326;19.122;2023-03-14T16:37:18;17.50;;;7.10;;
66800;SDS011;53703;50.326;19.122;2023-03-14T16:40:15;18.00;;;7.10;;
66800;SDS011;53703;50.326;19.122;2023-03-14T16:43:09;15.80;;;7.30;;
66800;SDS011;53703;50.326;19.122;2023-03-14T16:49:40;19.10;;;7.40;;
66800;SDS011;53703;50.326;19.122;2023-03-14T16:52:34;21.70;;;7.80;;
66800;SDS011;53703;50.326;19.122;2023-03-14T16:55:27;16.10;;;7.80;;
66800;SDS011;53703;50.326;19.122;2023-03-14T16:58:21;16.30;;;7.10;;
66800;SDS011;53703;50.326;19.122;2023-03-14T17:01:16;19.10;;;7.50;;
66800;SDS011;53703;50.326;19.122;2023-03-14T17:04:18;16.30;;;7.00;;
66800;SDS011;53703;50.326;19.122;2023-03-14T17:07:40;18.70;;;7.70;;
66800;SDS011;53703;50.326;19.122;2023-03-14T17:10:35;16.70;;;6.60;;
66800;SDS011;53703;50.326;19.122;2023-03-14T17:13:29;16.10;;;6.80;;
66800;SDS011;53703;50.326;19.122;2023-03-14T17:16:23;18.40;;;6.60;;
66800;SDS011;53703;50.326;19.122;2023-03-14T17:19:19;16.70;;;7.00;;
66800;SDS011;53703;50.326;19.122;2023-03-14T17:22:13;19.90;;;7.40;;
66800;SDS011;53703;50.326;19.122;2023-03-14T17:25:14;15.60;;;6.80;;
66800;SDS011;53703;50.326;19.122;2023-03-14T17:28:09;17.20;;;6.80;;